MRPD weather

Pandora Airport
Limón, Limon, Costa Rica

Public forecast

Using degrees Celsius for public forecast. Weather courtesy of forecast.io.

Closest aviation weather report (METAR) to Pandora Airport

Closest report is Limon International Airport, 13.7 nm (25.5 km) N. Retrieved 2019/10/21 13:00 UTC (42 minutes ago):

MRLM 211300Z 23004KT 9999 FEW015 BKN100 24/23 A2989

Closest aviation forecast (TAF) to Pandora Airport

Closest forecast is Limon International Airport, 13.7 nm (25.5 km) N. Retrieved 2019/10/21 12:00 UTC (2 hours ago):

TAF TAF MRLM 211100Z 2112/2212 23004KT 9999 FEW020 SCT120 TX31/2119Z TN22/2212Z BECMG 2114/2116 07006KT BECMG 2200/2202 24005KT TEMPO 2203/2210 RA BKN020